createdAt,value
2023-05-09T00:00:37.185Z,952.6367
2023-05-09T00:01:37.862Z,952.6445
2023-05-09T00:02:38.706Z,952.6484
2023-05-09T00:03:39.422Z,952.6539
2023-05-09T00:04:40.198Z,952.6417
2023-05-09T00:05:40.779Z,952.6372
2023-05-09T00:06:41.430Z,952.6345
2023-05-09T00:07:42.113Z,952.6345
2023-05-09T00:08:42.834Z,952.6089
2023-05-09T00:09:43.513Z,952.5856
2023-05-09T00:10:44.182Z,952.5889
2023-05-09T00:11:44.835Z,952.5689
2023-05-09T00:12:45.623Z,952.5645
2023-05-09T00:13:46.238Z,952.5594
2023-05-09T00:14:46.905Z,952.5483
2023-05-09T00:15:47.583Z,952.5328
2023-05-09T00:16:48.316Z,952.5122
2023-05-09T00:17:49.010Z,952.4828
2023-05-09T00:18:49.721Z,952.4672
2023-05-09T00:19:50.423Z,952.4600
2023-05-09T00:20:51.142Z,952.4461
2023-05-09T00:21:51.812Z,952.4389
2023-05-09T00:22:52.584Z,952.4506
2023-05-09T00:23:53.306Z,952.4333
2023-05-09T00:24:53.979Z,952.4216
2023-05-09T00:25:54.668Z,952.4283
2023-05-09T00:26:55.412Z,952.4183
2023-05-09T00:27:56.059Z,952.4061
2023-05-09T00:28:56.777Z,952.4178
2023-05-09T00:29:57.462Z,952.3989
2023-05-09T00:30:58.168Z,952.3967
2023-05-09T00:31:58.875Z,952.3772
2023-05-09T00:32:59.630Z,952.3766
2023-05-09T00:34:00.256Z,952.3789
2023-05-09T00:35:01.129Z,952.3889
2023-05-09T00:36:02.008Z,952.3889
2023-05-09T00:37:02.871Z,952.3589
2023-05-09T00:38:03.681Z,952.3522
2023-05-09T00:39:04.538Z,952.3433
2023-05-09T00:40:05.351Z,952.3444
2023-05-09T00:41:06.220Z,952.3339
2023-05-09T00:42:06.939Z,952.3256
2023-05-09T00:43:07.591Z,952.2972
2023-05-09T00:44:08.275Z,952.3083
2023-05-09T00:45:09.025Z,952.2900
2023-05-09T00:46:09.733Z,952.2761
2023-05-09T00:47:10.415Z,952.2328
2023-05-09T00:48:11.048Z,952.2244
2023-05-09T00:49:11.766Z,952.2156
2023-05-09T00:50:12.428Z,952.2205
2023-05-09T00:51:13.160Z,952.2161
2023-05-09T00:52:13.846Z,952.1917
2023-05-09T00:53:14.572Z,952.1822
2023-05-09T00:54:15.324Z,952.1816
2023-05-09T00:55:16.187Z,952.1661
2023-05-09T00:56:16.990Z,952.1528
2023-05-09T00:57:17.742Z,952.1495
2023-05-09T00:58:18.389Z,952.1278
2023-05-09T00:59:19.135Z,952.1339
2023-05-09T01:00:19.798Z,952.1166
2023-05-09T01:01:20.497Z,952.1295
2023-05-09T01:02:21.255Z,952.1239
2023-05-09T01:03:22.105Z,952.1089
2023-05-09T01:04:22.843Z,952.1050
2023-05-09T01:05:23.594Z,952.0933
2023-05-09T01:06:24.405Z,952.0767
2023-05-09T01:07:25.142Z,952.0583
2023-05-09T01:08:25.861Z,952.0572
2023-05-09T01:09:26.646Z,952.0634
2023-05-09T01:10:27.359Z,952.0622
2023-05-09T01:11:28.149Z,952.0616
2023-05-09T01:12:28.873Z,952.0389
2023-05-09T01:13:29.633Z,952.0250
2023-05-09T01:14:30.338Z,952.0100
2023-05-09T01:15:31.108Z,951.9850
2023-05-09T01:16:31.793Z,951.9595
2023-05-09T01:17:32.674Z,951.9355
2023-05-09T01:18:33.520Z,951.8917
2023-05-09T01:19:34.269Z,951.8578
2023-05-09T01:20:34.977Z,951.8234
2023-05-09T01:21:35.699Z,951.7911
2023-05-09T01:22:36.369Z,951.7639
2023-05-09T01:23:37.105Z,951.7672
2023-05-09T01:24:37.875Z,951.7672
2023-05-09T01:25:38.572Z,951.7489
2023-05-09T01:26:39.257Z,951.7534
2023-05-09T01:27:40.029Z,951.7789
2023-05-09T01:28:40.806Z,951.7844
2023-05-09T01:29:41.556Z,951.7684
2023-05-09T01:30:42.306Z,951.7778
2023-05-09T01:31:43.114Z,951.7689
2023-05-09T01:32:43.840Z,951.7695
2023-05-09T01:33:44.580Z,951.7634
2023-05-09T01:34:45.296Z,951.7672
2023-05-09T01:35:46.031Z,951.7405
2023-05-09T01:36:46.941Z,951.7250
2023-05-09T01:37:47.677Z,951.7122
2023-05-09T01:38:48.433Z,951.7150
2023-05-09T01:39:49.213Z,951.6833
2023-05-09T01:40:49.894Z,951.6755
2023-05-09T01:41:50.618Z,951.6705
2023-05-09T01:42:51.394Z,951.6605
2023-05-09T01:43:52.127Z,951.6555
2023-05-09T01:44:52.861Z,951.6616
2023-05-09T01:45:53.561Z,951.6650
2023-05-09T01:46:54.352Z,951.6683
2023-05-09T01:47:55.069Z,951.6583
2023-05-09T01:48:55.821Z,951.6550
2023-05-09T01:49:56.512Z,951.6517
2023-05-09T01:50:57.282Z,951.6467
2023-05-09T01:51:58.033Z,951.6472
2023-05-09T01:52:58.785Z,951.6372
2023-05-09T01:53:59.486Z,951.6278
2023-05-09T01:55:00.290Z,951.6311
2023-05-09T01:56:00.958Z,951.6395
2023-05-09T01:57:01.734Z,951.6506
2023-05-09T01:58:02.503Z,951.6639
2023-05-09T01:59:03.285Z,951.6733
2023-05-09T02:00:03.952Z,951.6844
2023-05-09T02:01:04.820Z,951.6861
2023-05-09T02:02:05.464Z,951.6866
2023-05-09T02:03:06.253Z,951.6844
2023-05-09T02:04:06.959Z,951.6884
2023-05-09T02:05:07.683Z,951.6878
2023-05-09T02:06:08.370Z,951.6878
2023-05-09T02:07:09.142Z,951.6995
2023-05-09T02:08:09.838Z,951.7000
2023-05-09T02:09:10.633Z,951.7139
2023-05-09T02:10:11.449Z,951.7228
2023-05-09T02:11:12.281Z,951.7339
2023-05-09T02:12:12.890Z,951.7534
2023-05-09T02:13:13.713Z,951.7684
2023-05-09T02:14:14.365Z,951.7695
2023-05-09T02:15:15.229Z,951.7734
2023-05-09T02:16:16.156Z,951.7700
2023-05-09T02:17:16.874Z,951.7495
2023-05-09T02:18:17.630Z,951.7394
2023-05-09T02:19:18.340Z,951.7205
2023-05-09T02:20:19.029Z,951.6961
2023-05-09T02:21:19.795Z,951.6822
2023-05-09T02:22:20.492Z,951.6716
2023-05-09T02:23:21.245Z,951.6622
2023-05-09T02:24:21.951Z,951.6522
2023-05-09T02:25:22.747Z,951.6434
2023-05-09T02:26:23.457Z,951.6334
2023-05-09T02:27:24.216Z,951.6200
2023-05-09T02:28:24.966Z,951.6089
2023-05-09T02:29:25.699Z,951.5928
2023-05-09T02:30:26.422Z,951.5867
2023-05-09T02:31:27.215Z,951.5650
2023-05-09T02:32:27.930Z,951.5544
2023-05-09T02:33:28.649Z,951.5533
2023-05-09T02:34:29.338Z,951.5505
2023-05-09T02:35:30.071Z,951.5383
2023-05-09T02:36:30.748Z,951.5372
2023-05-09T02:37:31.528Z,951.5344
2023-05-09T02:38:32.221Z,951.5422
2023-05-09T02:39:33.009Z,951.5489
2023-05-09T02:40:33.767Z,951.5461
2023-05-09T02:41:34.451Z,951.5505
2023-05-09T02:42:35.162Z,951.5489
2023-05-09T02:43:35.912Z,951.5500
2023-05-09T02:44:36.601Z,951.5455
2023-05-09T02:45:37.407Z,951.5272
2023-05-09T02:46:38.161Z,951.5228
2023-05-09T02:47:38.868Z,951.5005
2023-05-09T02:48:39.544Z,951.5045
2023-05-09T02:49:40.321Z,951.5106
2023-05-09T02:50:41.003Z,951.5222
2023-05-09T02:51:41.812Z,951.5383
2023-05-09T02:52:42.500Z,951.5328
2023-05-09T02:53:43.194Z,951.5145
2023-05-09T02:54:43.853Z,951.4944
2023-05-09T02:55:44.635Z,951.4739
2023-05-09T02:56:45.292Z,951.4672
2023-05-09T02:57:46.088Z,951.4500
2023-05-09T02:58:46.872Z,951.4556
2023-05-09T02:59:47.538Z,951.4589
2023-05-09T03:00:48.297Z,951.4683
2023-05-09T03:01:49.027Z,951.4678
2023-05-09T03:02:49.860Z,951.4728
2023-05-09T03:03:50.616Z,951.4761
2023-05-09T03:04:51.374Z,951.4800
2023-05-09T03:05:52.106Z,951.4816
2023-05-09T03:06:52.801Z,951.5000
2023-05-09T03:07:53.568Z,951.4972
2023-05-09T03:08:54.244Z,951.5056
2023-05-09T03:09:55.088Z,951.5134
2023-05-09T03:10:55.869Z,951.5117
2023-05-09T03:11:56.567Z,951.5111
2023-05-09T03:12:57.289Z,951.5084
2023-05-09T03:13:57.989Z,951.4978
2023-05-09T03:14:58.703Z,951.4900
2023-05-09T03:15:59.517Z,951.4622
2023-05-09T03:17:00.325Z,951.4489
2023-05-09T03:18:01.144Z,951.4239
2023-05-09T03:19:02.780Z,951.4100
2023-05-09T03:20:04.377Z,951.3839
2023-05-09T03:21:05.235Z,951.3633
2023-05-09T03:22:06.031Z,951.3284
2023-05-09T03:23:06.723Z,951.3261
2023-05-09T03:24:07.455Z,951.3311
2023-05-09T03:25:08.163Z,951.3578
2023-05-09T03:26:08.918Z,951.3861
2023-05-09T03:27:09.586Z,951.4155
2023-05-09T03:28:10.382Z,951.4311
2023-05-09T03:29:11.073Z,951.4489
2023-05-09T03:30:11.840Z,951.4534
2023-05-09T03:31:12.580Z,951.4478
2023-05-09T03:32:15.148Z,951.4395
2023-05-09T03:33:13.760Z,951.4322
2023-05-09T03:34:14.449Z,951.4141
2023-05-09T03:35:15.280Z,951.4011
2023-05-09T03:36:17.057Z,951.3789
2023-05-09T03:37:17.811Z,951.3600
2023-05-09T03:38:18.589Z,951.3167
2023-05-09T03:39:19.284Z,951.3083
2023-05-09T03:40:20.061Z,951.3145
2023-05-09T03:41:20.854Z,951.3211
2023-05-09T03:42:21.564Z,951.3250
2023-05-09T03:43:22.209Z,951.3311
2023-05-09T03:44:22.997Z,951.3378
2023-05-09T03:45:23.687Z,951.3350
2023-05-09T03:46:24.521Z,951.3172
2023-05-09T03:47:25.264Z,951.3378
2023-05-09T03:48:26.038Z,951.3367
2023-05-09T03:49:26.738Z,951.3222
2023-05-09T03:50:27.480Z,951.3178
2023-05-09T03:51:28.200Z,951.3211
2023-05-09T03:52:28.979Z,951.3278
2023-05-09T03:53:29.778Z,951.3267
2023-05-09T03:54:30.533Z,951.3256
2023-05-09T03:55:31.297Z,951.3272
2023-05-09T03:56:32.081Z,951.3022
2023-05-09T03:57:32.774Z,951.2961
2023-05-09T03:58:33.523Z,951.3022
2023-05-09T03:59:34.291Z,951.3206
2023-05-09T04:00:34.980Z,951.3278
2023-05-09T04:01:36.511Z,951.3317
2023-05-09T04:02:38.499Z,951.3272
2023-05-09T04:03:39.268Z,951.3111
2023-05-09T04:04:40.091Z,951.3061
2023-05-09T04:05:40.756Z,951.2867
2023-05-09T04:06:41.450Z,951.2856
2023-05-09T04:07:42.192Z,951.2872
2023-05-09T04:08:42.932Z,951.3055
2023-05-09T04:09:43.619Z,951.3178
2023-05-09T04:10:44.377Z,951.3417
2023-05-09T04:11:45.209Z,951.3522
2023-05-09T04:12:45.959Z,951.3522
2023-05-09T04:13:46.601Z,951.3444
2023-05-09T04:14:48.998Z,951.3250
2023-05-09T04:15:49.848Z,951.3105
2023-05-09T04:16:50.717Z,951.3066
2023-05-09T04:17:51.425Z,951.3011
2023-05-09T04:18:52.114Z,951.2983
2023-05-09T04:19:52.801Z,951.2944
2023-05-09T04:20:53.560Z,951.2856
2023-05-09T04:21:54.278Z,951.2994
2023-05-09T04:22:55.028Z,951.3161
2023-05-09T04:23:55.749Z,951.3250
2023-05-09T04:24:56.475Z,951.3395
2023-05-09T04:25:57.196Z,951.3566
2023-05-09T04:26:57.960Z,951.3616
2023-05-09T04:27:58.635Z,951.3689
2023-05-09T04:28:59.416Z,951.3661
2023-05-09T04:30:00.085Z,951.3572
2023-05-09T04:31:00.915Z,951.3411
2023-05-09T04:32:01.893Z,951.3089
2023-05-09T04:33:02.752Z,951.3061
2023-05-09T04:34:03.469Z,951.3055
2023-05-09T04:35:04.270Z,951.3145
2023-05-09T04:36:04.942Z,951.3206
2023-05-09T04:37:05.744Z,951.3372
2023-05-09T04:38:06.457Z,951.3505
2023-05-09T04:39:07.148Z,951.3561
2023-05-09T04:40:07.865Z,951.3533
2023-05-09T04:41:08.637Z,951.3494
2023-05-09T04:42:09.437Z,951.3433
2023-05-09T04:43:10.122Z,951.3350
2023-05-09T04:44:10.836Z,951.3234
2023-05-09T04:45:11.780Z,951.3089
2023-05-09T04:46:12.581Z,951.2922
2023-05-09T04:47:13.312Z,951.2650
2023-05-09T04:48:14.015Z,951.2466
2023-05-09T04:49:14.706Z,951.2350
2023-05-09T04:50:15.441Z,951.2106
2023-05-09T04:51:16.159Z,951.2189
2023-05-09T04:52:16.932Z,951.2361
2023-05-09T04:53:17.574Z,951.2439
2023-05-09T04:54:18.282Z,951.2505
2023-05-09T04:55:19.047Z,951.2661
2023-05-09T04:56:19.755Z,951.2739
2023-05-09T04:57:20.524Z,951.2739
2023-05-09T04:58:21.294Z,951.2839
2023-05-09T04:59:22.052Z,951.2878
2023-05-09T05:00:22.724Z,951.2828
2023-05-09T05:01:23.548Z,951.2689
2023-05-09T05:02:24.256Z,951.2734
2023-05-09T05:03:25.016Z,951.2784
2023-05-09T05:04:26.601Z,951.2939
2023-05-09T05:05:27.628Z,951.2817
2023-05-09T05:06:32.018Z,951.2516
2023-05-09T05:07:30.686Z,951.2305
2023-05-09T05:08:31.458Z,951.2170
2023-05-09T05:11:00.594Z,951.1878
2023-05-09T05:11:00.594Z,951.1972
2023-05-09T05:12:03.615Z,951.1700
2023-05-09T05:13:03.449Z,951.1750
2023-05-09T05:14:04.092Z,951.1818
2023-05-09T05:15:05.058Z,951.1716
2023-05-09T05:16:06.854Z,951.1661
2023-05-09T05:17:07.505Z,951.1489
2023-05-09T05:18:08.250Z,951.1339
2023-05-09T05:19:08.956Z,951.1278
2023-05-09T05:20:09.780Z,951.1311
2023-05-09T05:21:12.295Z,951.1250
2023-05-09T05:22:14.204Z,951.1222
2023-05-09T05:23:15.041Z,951.1259
2023-05-09T05:24:15.853Z,951.1255
2023-05-09T05:25:16.888Z,951.1094
2023-05-09T05:26:17.754Z,951.0900
2023-05-09T05:27:18.920Z,951.0806
2023-05-09T05:28:20.680Z,951.0767
2023-05-09T05:29:21.394Z,951.0822
2023-05-09T05:30:22.169Z,951.0922
2023-05-09T05:31:23.069Z,951.0939
2023-05-09T05:32:23.937Z,951.0933
2023-05-09T05:33:25.841Z,951.0906
2023-05-09T05:36:21.431Z,951.0856
2023-05-09T05:36:21.431Z,951.0884
2023-05-09T05:37:02.939Z,951.1100
2023-05-09T05:38:03.738Z,951.1350
2023-05-09T05:39:04.548Z,951.1533
2023-05-09T05:40:05.480Z,951.1616
2023-05-09T05:41:06.273Z,951.1783
2023-05-09T05:42:07.043Z,951.1800
2023-05-09T05:43:07.716Z,951.1816
2023-05-09T05:44:08.551Z,951.1805
2023-05-09T05:45:09.244Z,951.1828
2023-05-09T05:46:09.996Z,951.1967
2023-05-09T05:47:10.682Z,951.1995
2023-05-09T05:48:11.460Z,951.2178
2023-05-09T05:49:12.163Z,951.2233
2023-05-09T05:50:12.955Z,951.2178
2023-05-09T05:51:13.779Z,951.2205
2023-05-09T05:52:14.842Z,951.2261
2023-05-09T05:55:49.850Z,951.2111
2023-05-09T05:55:49.850Z,951.1850
2023-05-09T05:56:19.743Z,951.1750
2023-05-09T05:57:21.690Z,951.1716
2023-05-09T05:58:22.437Z,951.1672
2023-05-09T05:59:23.251Z,951.1683
2023-05-09T06:00:24.007Z,951.1300
2023-05-09T06:01:24.808Z,951.1105
2023-05-09T06:02:25.834Z,951.0828
2023-05-09T06:03:26.862Z,951.0483
2023-05-09T06:04:27.670Z,951.0195
2023-05-09T06:05:28.461Z,951.0078
2023-05-09T06:06:29.431Z,950.9966
2023-05-09T06:07:31.272Z,950.9905
2023-05-09T06:08:32.255Z,950.9889
2023-05-09T06:09:54.113Z,950.9922
2023-05-09T06:10:35.691Z,951.0139
2023-05-09T06:11:36.456Z,951.0292
2023-05-09T06:12:37.355Z,951.0361
2023-05-09T06:13:38.135Z,951.0516
2023-05-09T06:14:38.927Z,951.0416
2023-05-09T06:15:40.774Z,951.0444
2023-05-09T06:16:41.730Z,951.0422
2023-05-09T06:17:42.487Z,951.0234
2023-05-09T06:18:43.195Z,950.9972
2023-05-09T06:19:44.005Z,950.9928
2023-05-09T06:20:44.789Z,950.9995
2023-05-09T06:21:45.562Z,951.0016
2023-05-09T06:22:46.254Z,951.0128
2023-05-09T06:23:57.564Z,951.0245
2023-05-09T06:24:47.324Z,951.0311
2023-05-09T06:25:47.979Z,951.0206
2023-05-09T06:26:48.697Z,950.9978
2023-05-09T06:27:49.421Z,950.9828
2023-05-09T06:28:50.209Z,950.9639
2023-05-09T06:29:50.989Z,950.9417
2023-05-09T06:30:52.269Z,950.9155
2023-05-09T06:31:54.073Z,950.9100
2023-05-09T06:33:57.496Z,950.9150
2023-05-09T06:36:00.808Z,950.9144
2023-05-09T06:37:03.649Z,950.9133
2023-05-09T06:38:04.403Z,950.9078
2023-05-09T06:39:05.144Z,950.8850
2023-05-09T06:40:05.888Z,950.8722
2023-05-09T06:41:06.646Z,950.8417
2023-05-09T06:42:07.360Z,950.8050
2023-05-09T06:43:08.049Z,950.7822
2023-05-09T06:44:08.934Z,950.7761
2023-05-09T06:45:09.914Z,950.7734
2023-05-09T06:46:10.782Z,950.7800
2023-05-09T06:47:11.583Z,950.7806
2023-05-09T06:48:12.439Z,950.7617
2023-05-09T06:49:13.253Z,950.7756
2023-05-09T06:50:13.989Z,950.7511
2023-05-09T06:51:14.812Z,950.7300
2023-05-09T06:52:15.586Z,950.7156
2023-05-09T06:53:16.277Z,950.7067
2023-05-09T06:54:16.982Z,950.6956
2023-05-09T06:55:17.799Z,950.6833
2023-05-09T06:56:20.019Z,950.6644
2023-05-09T06:57:20.849Z,950.6700
2023-05-09T06:58:21.596Z,950.6361
2023-05-09T06:59:22.286Z,950.6228
2023-05-09T07:00:23.082Z,950.6033
2023-05-09T07:01:23.836Z,950.5900
2023-05-09T07:02:24.529Z,950.5883
2023-05-09T07:03:25.235Z,950.5939
2023-05-09T07:04:25.898Z,950.6066
2023-05-09T07:05:26.778Z,950.6266
2023-05-09T07:06:28.515Z,950.6150
2023-05-09T07:07:29.296Z,950.5800
2023-05-09T07:08:29.985Z,950.5756
2023-05-09T07:09:30.813Z,950.5594
2023-05-09T07:10:31.530Z,950.5344
2023-05-09T07:11:32.204Z,950.5306
2023-05-09T07:12:32.886Z,950.5128
2023-05-09T07:13:33.668Z,950.5095
2023-05-09T07:14:34.382Z,950.4933
2023-05-09T07:15:41.888Z,950.4944
2023-05-09T07:16:37.462Z,950.4961
2023-05-09T07:17:38.549Z,950.4850
2023-05-09T07:18:39.369Z,950.4711
2023-05-09T07:19:40.053Z,950.4534
2023-05-09T07:20:40.770Z,950.4472
2023-05-09T07:21:41.420Z,950.4322
2023-05-09T07:22:42.166Z,950.4122
2023-05-09T07:23:42.814Z,950.3728
2023-05-09T07:24:43.564Z,950.3566
2023-05-09T07:25:44.251Z,950.3228
2023-05-09T07:26:45.002Z,950.3078
2023-05-09T07:27:45.694Z,950.2739
2023-05-09T07:28:46.417Z,950.2578
2023-05-09T07:29:47.119Z,950.2361
2023-05-09T07:30:47.885Z,950.2194
2023-05-09T07:31:48.602Z,950.2122
2023-05-09T07:32:49.348Z,950.1772
2023-05-09T07:33:50.065Z,950.1744
2023-05-09T07:34:50.739Z,950.1700
2023-05-09T07:35:51.452Z,950.1594
2023-05-09T07:36:52.172Z,950.1478
2023-05-09T07:37:52.917Z,950.1306
2023-05-09T07:38:53.654Z,950.1205
2023-05-09T07:39:54.361Z,950.1155
2023-05-09T07:40:55.214Z,950.1061
2023-05-09T07:41:55.905Z,950.1028
2023-05-09T07:42:56.653Z,950.0967
2023-05-09T07:43:57.324Z,950.0900
2023-05-09T07:44:58.012Z,950.0895
2023-05-09T07:45:58.863Z,950.0889
2023-05-09T07:47:00.569Z,950.0767
2023-05-09T07:48:01.335Z,950.0650
2023-05-09T07:49:02.190Z,950.0489
2023-05-09T07:50:02.939Z,950.0222
2023-05-09T07:51:03.691Z,949.9995
2023-05-09T07:52:04.380Z,949.9805
2023-05-09T07:53:05.159Z,949.9789
2023-05-09T07:54:05.855Z,949.9645
2023-05-09T07:55:06.605Z,949.9606
2023-05-09T07:56:07.296Z,949.9484
2023-05-09T07:57:08.102Z,949.9478
2023-05-09T07:58:08.710Z,949.9456
2023-05-09T07:59:09.460Z,949.9272
2023-05-09T08:00:10.142Z,949.9044
2023-05-09T08:01:10.962Z,949.8945
2023-05-09T08:02:11.612Z,949.8761
2023-05-09T08:03:12.434Z,949.8600
2023-05-09T08:04:14.372Z,949.8611
2023-05-09T08:05:15.387Z,949.8494
2023-05-09T08:06:16.165Z,949.8511
2023-05-09T08:07:16.860Z,949.8472
2023-05-09T08:08:17.573Z,949.8483
2023-05-09T08:09:18.292Z,949.8111
2023-05-09T08:10:18.944Z,949.7867
2023-05-09T08:11:19.632Z,949.7750
2023-05-09T08:12:20.294Z,949.7595
2023-05-09T08:13:21.113Z,949.7405
2023-05-09T08:14:21.868Z,949.7244
2023-05-09T08:15:22.554Z,949.7150
2023-05-09T08:16:23.399Z,949.7056
2023-05-09T08:17:24.119Z,949.6844
2023-05-09T08:18:25.838Z,949.6461
2023-05-09T08:19:26.541Z,949.6194
2023-05-09T08:20:27.255Z,949.6000
2023-05-09T08:21:27.994Z,949.5872
2023-05-09T08:22:28.758Z,949.5656
2023-05-09T08:23:29.448Z,949.5639
2023-05-09T08:24:30.133Z,949.5439
2023-05-09T08:25:31.042Z,949.5311
2023-05-09T08:26:32.347Z,949.5122
2023-05-09T08:27:33.237Z,949.4989
2023-05-09T08:28:34.023Z,949.4944
2023-05-09T08:29:34.822Z,949.4828
2023-05-09T08:30:35.651Z,949.4855
2023-05-09T08:31:36.465Z,949.4667
2023-05-09T08:32:38.193Z,949.4372
2023-05-09T08:33:41.226Z,949.4083
2023-05-09T08:34:39.265Z,949.3950
2023-05-09T08:35:39.960Z,949.3906
2023-05-09T08:36:40.761Z,949.3850
2023-05-09T08:37:41.530Z,949.3633
2023-05-09T08:38:42.349Z,949.3417
2023-05-09T08:39:44.106Z,949.3306
2023-05-09T08:40:45.806Z,949.2928
2023-05-09T08:41:46.512Z,949.2706
2023-05-09T08:42:47.272Z,949.2522
2023-05-09T08:43:47.996Z,949.2383
2023-05-09T08:44:49.765Z,949.2355
2023-05-09T08:45:50.461Z,949.2389
2023-05-09T08:46:51.245Z,949.2411
2023-05-09T08:47:52.956Z,949.2572
2023-05-09T08:48:53.649Z,949.2372
2023-05-09T08:49:54.469Z,949.2233
2023-05-09T08:50:55.165Z,949.2139
2023-05-09T08:51:55.935Z,949.1884
2023-05-09T08:52:57.920Z,949.1766
2023-05-09T08:53:58.937Z,949.1583
2023-05-09T08:55:01.736Z,949.1561
2023-05-09T08:56:04.526Z,949.1367
2023-05-09T08:57:05.637Z,949.1100
2023-05-09T08:58:07.179Z,949.0888
2023-05-09T08:59:07.839Z,949.0533
2023-05-09T09:00:08.560Z,949.0400
2023-05-09T09:01:09.223Z,949.0400
2023-05-09T09:02:10.022Z,949.0222
2023-05-09T09:03:10.725Z,949.0034
2023-05-09T09:04:11.491Z,948.9811
2023-05-09T09:05:23.767Z,948.9472
2023-05-09T09:06:12.317Z,948.9489
2023-05-09T09:07:13.034Z,948.9431
2023-05-09T09:08:13.711Z,948.9228
2023-05-09T09:09:14.412Z,948.8928
2023-05-09T09:10:15.333Z,948.8711
2023-05-09T09:11:16.170Z,948.8700
2023-05-09T09:12:16.827Z,948.8605
2023-05-09T09:13:17.613Z,948.8528
2023-05-09T09:14:18.303Z,948.8550
2023-05-09T09:15:19.019Z,948.8544
2023-05-09T09:16:19.794Z,948.8472
2023-05-09T09:17:20.536Z,948.8378
2023-05-09T09:18:21.201Z,948.8494
2023-05-09T09:19:21.928Z,948.8317
2023-05-09T09:20:22.791Z,948.8289
2023-05-09T09:21:23.595Z,948.8022
2023-05-09T09:22:24.432Z,948.7989
2023-05-09T09:23:25.266Z,948.8055
2023-05-09T09:24:26.171Z,948.7856
2023-05-09T09:25:26.952Z,948.7484
2023-05-09T09:26:27.810Z,948.7211
2023-05-09T09:27:28.614Z,948.6889
2023-05-09T09:28:29.466Z,948.6744
2023-05-09T09:29:52.322Z,948.6533
2023-05-09T09:30:30.395Z,948.6395
2023-05-09T09:31:31.316Z,948.6163
2023-05-09T09:32:33.269Z,948.6128
2023-05-09T09:33:34.127Z,948.5839
2023-05-09T09:34:34.904Z,948.5589
2023-05-09T09:35:35.729Z,948.5367
2023-05-09T09:36:36.487Z,948.5306
2023-05-09T09:37:37.166Z,948.5245
2023-05-09T09:38:37.904Z,948.5139
2023-05-09T09:39:38.650Z,948.5045
2023-05-09T09:40:39.443Z,948.4944
2023-05-09T09:41:40.271Z,948.4705
2023-05-09T09:42:41.135Z,948.4472
2023-05-09T09:43:42.016Z,948.4266
2023-05-09T09:44:42.814Z,948.4222
2023-05-09T09:45:43.719Z,948.4050
2023-05-09T09:46:44.490Z,948.3795
2023-05-09T09:47:45.463Z,948.3711
2023-05-09T09:48:46.269Z,948.3578
2023-05-09T09:49:47.203Z,948.3583
2023-05-09T09:50:48.071Z,948.3555
2023-05-09T09:51:48.953Z,948.3583
2023-05-09T09:52:49.757Z,948.3450
2023-05-09T09:53:51.373Z,948.3289
2023-05-09T09:54:53.675Z,948.3089
2023-05-09T09:55:54.558Z,948.3039
2023-05-09T09:56:56.982Z,948.2850
2023-05-09T09:57:58.812Z,948.2645
2023-05-09T09:58:59.847Z,948.2428
2023-05-09T10:00:01.549Z,948.2261
2023-05-09T10:01:02.276Z,948.2106
2023-05-09T10:02:05.917Z,948.2045
2023-05-09T10:03:04.886Z,948.2067
2023-05-09T10:04:05.824Z,948.1965
2023-05-09T10:05:06.481Z,948.1805
2023-05-09T10:06:07.264Z,948.1672
2023-05-09T10:07:10.598Z,948.1517
2023-05-09T10:08:10.493Z,948.1266
2023-05-09T10:09:11.846Z,948.1035
2023-05-09T10:10:12.853Z,948.0839
2023-05-09T10:11:14.966Z,948.0589
2023-05-09T10:12:17.751Z,948.0256
2023-05-09T10:13:17.784Z,947.9889
2023-05-09T10:14:20.390Z,947.9677
2023-05-09T10:15:21.346Z,947.9622
2023-05-09T10:16:35.637Z,947.9439
2023-05-09T10:17:24.362Z,947.9233
2023-05-09T10:18:26.515Z,947.9306
2023-05-09T10:19:27.560Z,947.9083
2023-05-09T10:20:28.457Z,947.8817
2023-05-09T10:21:29.269Z,947.8655
2023-05-09T10:22:30.143Z,947.8261
2023-05-09T10:23:30.965Z,947.7894
2023-05-09T10:24:31.822Z,947.7578
2023-05-09T10:25:32.770Z,947.7255
2023-05-09T10:26:33.640Z,947.7111
2023-05-09T10:27:34.507Z,947.7056
2023-05-09T10:28:35.491Z,947.7139
2023-05-09T10:29:36.395Z,947.7078
2023-05-09T10:30:37.198Z,947.6800
2023-05-09T10:31:38.085Z,947.6672
2023-05-09T10:32:38.974Z,947.6655
2023-05-09T10:33:39.884Z,947.6406
2023-05-09T10:34:40.699Z,947.6194
2023-05-09T10:35:41.530Z,947.6083
2023-05-09T10:36:42.444Z,947.6061
2023-05-09T10:37:43.354Z,947.6100
2023-05-09T10:38:44.174Z,947.6017
2023-05-09T10:39:45.070Z,947.5795
2023-05-09T10:40:45.967Z,947.5778
2023-05-09T10:41:46.996Z,947.5795
2023-05-09T10:42:47.839Z,947.5539
2023-05-09T10:43:48.716Z,947.5533
2023-05-09T10:44:49.631Z,947.5211
2023-05-09T10:45:50.405Z,947.5056
2023-05-09T10:46:51.428Z,947.4966
2023-05-09T10:47:53.329Z,947.4861
2023-05-09T10:48:54.308Z,947.4711
2023-05-09T10:49:55.211Z,947.4595
2023-05-09T10:50:56.106Z,947.4417
2023-05-09T10:51:56.927Z,947.4272
2023-05-09T10:52:57.799Z,947.4111
2023-05-09T10:53:58.670Z,947.3872
2023-05-09T10:54:59.535Z,947.3667
2023-05-09T10:56:00.425Z,947.3300
2023-05-09T10:57:01.225Z,947.3172
2023-05-09T10:58:02.037Z,947.3078
2023-05-09T10:59:02.929Z,947.2761
2023-05-09T11:00:03.806Z,947.2444
2023-05-09T11:01:04.800Z,947.2316
2023-05-09T11:02:05.693Z,947.2056
2023-05-09T11:03:06.579Z,947.2072
2023-05-09T11:04:08.544Z,947.2011
2023-05-09T11:05:10.327Z,947.1855
2023-05-09T11:06:11.256Z,947.1583
2023-05-09T11:07:12.109Z,947.1178
2023-05-09T11:08:13.086Z,947.1100
2023-05-09T11:09:13.945Z,947.0817
2023-05-09T11:10:15.986Z,947.0544
2023-05-09T11:11:17.751Z,947.0311
2023-05-09T11:12:18.553Z,947.0067
2023-05-09T11:13:20.502Z,946.9978
2023-05-09T11:14:22.302Z,946.9816
2023-05-09T11:15:23.153Z,946.9644
2023-05-09T11:16:24.051Z,946.9305
2023-05-09T11:17:25.012Z,946.9133
2023-05-09T11:18:25.784Z,946.9089
2023-05-09T11:19:26.704Z,946.8889
2023-05-09T11:20:27.487Z,946.8772
2023-05-09T11:21:28.297Z,946.8467
2023-05-09T11:22:29.139Z,946.8367
2023-05-09T11:23:30.034Z,946.8184
2023-05-09T11:24:30.866Z,946.8161
2023-05-09T11:25:31.717Z,946.7989
2023-05-09T11:26:32.529Z,946.7955
2023-05-09T11:27:33.398Z,946.7878
2023-05-09T11:28:34.201Z,946.7933
2023-05-09T11:29:35.106Z,946.7900
2023-05-09T11:30:36.047Z,946.7539
2023-05-09T11:31:37.018Z,946.7211
2023-05-09T11:32:38.789Z,946.7045
2023-05-09T11:33:39.572Z,946.6805
2023-05-09T11:34:40.490Z,946.6472
2023-05-09T11:35:41.249Z,946.6122
2023-05-09T11:36:42.094Z,946.5906
2023-05-09T11:37:42.920Z,946.5605
2023-05-09T11:38:43.784Z,946.5344
2023-05-09T11:39:44.604Z,946.5056
2023-05-09T11:40:45.452Z,946.4694
2023-05-09T11:41:46.326Z,946.4434
2023-05-09T11:42:47.128Z,946.3967
2023-05-09T11:43:47.985Z,946.4067
2023-05-09T11:44:48.888Z,946.4100
2023-05-09T11:45:49.766Z,946.3800
2023-05-09T11:46:51.400Z,946.3666
2023-05-09T11:47:53.674Z,946.3572
2023-05-09T11:48:54.477Z,946.3372
2023-05-09T11:49:55.531Z,946.3217
2023-05-09T11:50:56.321Z,946.3089
2023-05-09T11:51:57.207Z,946.3016
2023-05-09T11:52:58.002Z,946.2939
2023-05-09T11:53:58.935Z,946.2667
2023-05-09T11:54:59.815Z,946.2817
2023-05-09T11:56:00.708Z,946.2789
2023-05-09T11:57:01.569Z,946.2556
2023-05-09T11:58:02.439Z,946.2572
2023-05-09T11:59:03.252Z,946.2466